Time;durP1;ratioP1;P1;durP2;ratioP2;P2;SDS_P1;SDS_P2;PMS_P1;PMS_P2;Temp;Humidity;BMP_temperature;BMP_pressure;BME280_temperature;BME280_humidity;BME280_pressure;Samples;Min_cycle;Max_cycle;Signal;HPM_P1;HPM_P2
2022/11/30 00:00:52;;;;;;;49.37;25.57;;;4.80;99.90;;;;;;5009593;28;20417;-84
2022/11/30 00:03:17;;;;;;;50.20;24.67;;;4.80;99.90;;;;;;5019563;23;20423;-84
2022/11/30 00:05:43;;;;;;;41.87;24.50;;;4.80;99.90;;;;;;5003226;28;20213;-84
2022/11/30 00:08:08;;;;;;;58.70;25.93;;;4.80;99.90;;;;;;4996581;28;20186;-84
2022/11/30 00:10:34;;;;;;;46.00;24.33;;;4.80;99.90;;;;;;4996004;28;20669;-85
2022/11/30 00:12:59;;;;;;;49.93;23.20;;;4.80;99.90;;;;;;4996010;28;20177;-84
2022/11/30 00:15:25;;;;;;;43.60;22.83;;;4.80;99.90;;;;;;4999653;28;20539;-84
2022/11/30 00:17:55;;;;;;;43.50;23.07;;;4.70;99.90;;;;;;4995877;28;20176;-85
2022/11/30 00:20:23;;;;;;;48.87;22.60;;;4.70;99.90;;;;;;4993836;28;20655;-85
2022/11/30 00:22:49;;;;;;;43.73;25.33;;;4.70;99.90;;;;;;4993831;28;20427;-84
2022/11/30 00:25:14;;;;;;;48.20;22.43;;;4.80;99.90;;;;;;4993987;28;20415;-85
2022/11/30 00:27:40;;;;;;;48.60;26.70;;;4.80;99.90;;;;;;4993619;28;20580;-85
2022/11/30 00:30:08;;;;;;;39.43;23.93;;;4.70;99.90;;;;;;4976450;28;20176;-88
2022/11/30 00:32:33;;;;;;;42.90;23.83;;;4.80;99.90;;;;;;4976906;28;20200;-85
2022/11/30 00:34:59;;;;;;;48.10;23.37;;;4.80;99.90;;;;;;4994857;28;20413;-85
2022/11/30 00:37:25;;;;;;;47.43;24.20;;;4.70;99.90;;;;;;4976831;28;20614;-84
2022/11/30 00:39:50;;;;;;;46.07;22.73;;;4.70;99.90;;;;;;4993395;28;20177;-91
2022/11/30 00:42:16;;;;;;;43.30;22.97;;;4.80;99.90;;;;;;4991706;28;20637;-84
2022/11/30 00:44:41;;;;;;;43.83;22.17;;;4.70;99.90;;;;;;4993223;28;20180;-84
2022/11/30 00:47:07;;;;;;;49.80;25.50;;;4.80;99.90;;;;;;4993260;28;20183;-85
2022/11/30 00:49:32;;;;;;;41.30;21.47;;;4.70;99.90;;;;;;4992223;28;20180;-88
2022/11/30 00:51:59;;;;;;;47.60;23.37;;;4.70;99.90;;;;;;4993067;28;20212;-84
2022/11/30 00:54:25;;;;;;;38.40;20.83;;;4.80;99.90;;;;;;4975865;28;20637;-87
2022/11/30 00:56:51;;;;;;;42.33;21.70;;;4.70;99.90;;;;;;4992853;28;20433;-84
2022/11/30 00:59:16;;;;;;;48.77;23.47;;;4.70;99.90;;;;;;4978478;28;20235;-84
2022/11/30 01:01:42;;;;;;;46.97;27.13;;;4.70;99.90;;;;;;4996986;28;20208;-85
2022/11/30 01:04:07;;;;;;;36.77;22.23;;;4.70;99.90;;;;;;4996538;28;20227;-85
2022/11/30 01:06:32;;;;;;;51.00;25.73;;;4.70;99.90;;;;;;4996798;28;20186;-90
2022/11/30 01:08:58;;;;;;;37.07;21.00;;;4.70;99.90;;;;;;4996540;28;20179;-85
2022/11/30 01:11:27;;;;;;;44.37;24.73;;;4.80;99.90;;;;;;4995940;28;20207;-84
2022/11/30 01:13:54;;;;;;;50.00;23.70;;;4.70;99.90;;;;;;4979619;28;20420;-85
2022/11/30 01:16:24;;;;;;;44.40;23.20;;;4.70;99.90;;;;;;4979376;28;20439;-84
2022/11/30 01:18:49;;;;;;;45.83;23.00;;;4.70;99.90;;;;;;4997127;28;20968;-85
2022/11/30 01:21:19;;;;;;;43.43;24.33;;;4.70;99.90;;;;;;4995759;28;20419;-85
2022/11/30 01:23:45;;;;;;;49.10;25.30;;;4.70;99.90;;;;;;4997480;28;20226;-86
2022/11/30 01:26:11;;;;;;;43.57;23.57;;;4.70;99.90;;;;;;4980570;28;20423;-91
2022/11/30 01:28:37;;;;;;;43.80;23.00;;;4.70;99.90;;;;;;4997993;28;20629;-85
2022/11/30 01:31:05;;;;;;;48.93;22.67;;;4.70;99.90;;;;;;5000075;28;20466;-89
2022/11/30 01:33:31;;;;;;;51.77;24.20;;;4.70;99.90;;;;;;4997682;28;20181;-85
2022/11/30 01:36:13;;;;;;;42.63;23.17;;;4.80;99.90;;;;;;4996715;28;20423;-86
2022/11/30 01:38:43;;;;;;;50.43;24.60;;;4.70;99.90;;;;;;4996346;28;21520;-85
2022/11/30 01:41:12;;;;;;;47.70;23.37;;;4.70;99.90;;;;;;4979245;28;20521;-85
2022/11/30 01:43:44;;;;;;;56.10;23.83;;;4.80;99.90;;;;;;4998428;28;20423;-84
2022/11/30 01:46:30;;;;;;;54.47;25.20;;;4.70;99.90;;;;;;4999957;28;20416;-84
2022/11/30 01:49:08;;;;;;;52.13;25.33;;;4.70;99.90;;;;;;5001008;28;20405;-84
2022/11/30 01:51:55;;;;;;;49.50;23.20;;;4.70;99.90;;;;;;5000233;28;20491;-84
2022/11/30 01:54:28;;;;;;;47.43;23.80;;;4.70;99.90;;;;;;4981130;28;20431;-87
2022/11/30 01:57:08;;;;;;;43.20;22.80;;;4.70;99.90;;;;;;4978498;28;20412;-85
2022/11/30 01:59:33;;;;;;;51.37;23.40;;;4.70;99.90;;;;;;4978490;28;20754;-86
2022/11/30 02:02:01;;;;;;;46.07;23.50;;;4.70;99.90;;;;;;4995473;28;20410;-88
2022/11/30 02:04:35;;;;;;;45.53;23.80;;;4.70;99.90;;;;;;4995766;28;20550;-85
2022/11/30 02:07:03;;;;;;;53.00;25.27;;;4.70;99.90;;;;;;4995543;28;20752;-86
2022/11/30 02:09:30;;;;;;;43.60;21.83;;;4.70;99.90;;;;;;4978104;28;20527;-86
2022/11/30 02:11:56;;;;;;;47.23;23.43;;;4.70;99.90;;;;;;4995151;28;20470;-86
2022/11/30 02:14:46;;;;;;;51.17;25.83;;;4.80;99.90;;;;;;4979172;28;20762;-93
2022/11/30 02:17:34;;;;;;;40.10;21.40;;;4.70;99.90;;;;;;4996685;28;20415;-91
2022/11/30 02:20:29;;;;;;;48.83;24.90;;;4.70;99.90;;;;;;4997393;28;20490;-85
2022/11/30 02:23:01;;;;;;;51.67;23.73;;;4.70;99.90;;;;;;5008966;23;20549;-84
2022/11/30 02:25:58;;;;;;;44.93;23.67;;;4.80;99.90;;;;;;5011124;28;20426;-84
2022/11/30 02:28:39;;;;;;;50.87;25.33;;;4.70;99.90;;;;;;4987731;28;20427;-85
2022/11/30 02:31:10;;;;;;;48.60;25.17;;;4.70;99.90;;;;;;5008458;28;20901;-96
2022/11/30 02:33:37;;;;;;;47.60;24.90;;;4.70;99.90;;;;;;5015844;23;20555;-85
2022/11/30 02:36:06;;;;;;;53.17;24.03;;;4.70;99.90;;;;;;4988222;28;20427;-85
2022/11/30 02:38:32;;;;;;;42.20;24.53;;;4.70;99.90;;;;;;4990742;23;20493;-91
2022/11/30 02:40:57;;;;;;;49.97;24.60;;;4.70;99.90;;;;;;4995223;28;20420;-87
2022/11/30 02:43:25;;;;;;;50.47;22.67;;;4.70;99.90;;;;;;4995650;28;20478;-87
2022/11/30 02:46:08;;;;;;;54.57;27.50;;;4.70;99.90;;;;;;4977656;28;20513;-88
2022/11/30 02:48:49;;;;;;;48.93;24.47;;;4.70;99.90;;;;;;4995419;28;20416;-95
2022/11/30 02:51:20;;;;;;;49.13;25.70;;;4.70;99.90;;;;;;4995351;28;20506;-86
2022/11/30 02:53:46;;;;;;;51.53;26.37;;;4.70;99.90;;;;;;4995002;28;20481;-89
2022/11/30 02:56:16;;;;;;;55.50;24.80;;;4.70;99.90;;;;;;4978071;28;20507;-91
2022/11/30 02:58:41;;;;;;;52.50;25.27;;;4.70;99.90;;;;;;4995221;28;20923;-87
2022/11/30 03:01:07;;;;;;;45.90;24.07;;;4.70;99.90;;;;;;4978210;28;20427;-89
2022/11/30 03:03:32;;;;;;;44.80;24.60;;;4.70;99.90;;;;;;4999368;28;20294;-88
2022/11/30 03:05:58;;;;;;;57.50;27.67;;;4.70;99.90;;;;;;4997110;28;20638;-86
2022/11/30 03:08:23;;;;;;;49.17;25.33;;;4.70;99.90;;;;;;5003869;28;20174;-89
2022/11/30 03:10:49;;;;;;;53.30;25.00;;;4.70;99.90;;;;;;5001386;28;20211;-86
2022/11/30 03:13:14;;;;;;;51.53;26.70;;;4.70;99.90;;;;;;5008275;28;20172;-86
2022/11/30 03:15:40;;;;;;;57.70;27.57;;;4.60;99.90;;;;;;4998941;28;20172;-86
2022/11/30 03:18:05;;;;;;;59.20;26.17;;;4.60;99.90;;;;;;4997297;28;20595;-84
2022/11/30 03:20:31;;;;;;;58.77;25.87;;;4.70;99.90;;;;;;5005053;28;20177;-85
2022/11/30 03:23:00;;;;;;;55.70;27.50;;;4.70;99.90;;;;;;5002066;28;20168;-84
2022/11/30 03:25:27;;;;;;;60.70;26.67;;;4.70;99.90;;;;;;4985585;28;20650;-84
2022/11/30 03:27:55;;;;;;;60.53;26.93;;;4.70;99.90;;;;;;4982639;28;20423;-85
2022/11/30 03:30:21;;;;;;;50.33;22.07;;;4.70;99.90;;;;;;5007923;28;20458;-87
2022/11/30 03:32:46;;;;;;;60.43;28.27;;;4.70;99.90;;;;;;5005177;28;20424;-86
2022/11/30 03:35:12;;;;;;;53.40;25.83;;;4.70;99.90;;;;;;5001205;28;20177;-95
2022/11/30 03:37:37;;;;;;;61.20;26.03;;;4.70;99.90;;;;;;4999064;28;20575;-90
2022/11/30 03:40:03;;;;;;;45.60;22.00;;;4.70;99.90;;;;;;4986158;28;20555;-85
2022/11/30 03:42:29;;;;;;;57.70;26.57;;;4.70;99.90;;;;;;5005729;28;20180;-85
2022/11/30 03:44:58;;;;;;;51.57;24.07;;;4.80;99.90;;;;;;5001626;28;20773;-87
2022/11/30 03:47:26;;;;;;;45.57;23.30;;;4.70;99.90;;;;;;5002361;28;20602;-86
2022/11/30 03:49:51;;;;;;;58.40;26.77;;;4.80;99.90;;;;;;5000531;28;20916;-85
2022/11/30 03:52:17;;;;;;;47.53;24.77;;;4.70;99.90;;;;;;5003682;28;20478;-85
2022/11/30 03:54:44;;;;;;;47.50;24.70;;;4.70;99.90;;;;;;5003261;28;20668;-85
2022/11/30 03:57:09;;;;;;;56.17;29.20;;;4.70;99.90;;;;;;4986345;28;20177;-87
2022/11/30 03:59:35;;;;;;;46.50;24.17;;;4.70;99.90;;;;;;4984723;28;20427;-85
2022/11/30 04:02:00;;;;;;;53.63;24.27;;;4.70;99.90;;;;;;4998737;28;20213;-85
2022/11/30 04:04:26;;;;;;;54.33;27.17;;;4.70;99.90;;;;;;5001128;28;20549;-85
2022/11/30 04:06:51;;;;;;;50.13;23.33;;;4.70;99.90;;;;;;5000440;28;20170;-85
2022/11/30 04:09:16;;;;;;;39.07;21.93;;;4.70;99.90;;;;;;4998555;28;20210;-85
2022/11/30 04:11:42;;;;;;;65.40;23.27;;;4.70;99.90;;;;;;4979191;28;20217;-85
2022/11/30 04:14:08;;;;;;;57.70;27.37;;;4.70;99.90;;;;;;4998604;28;20649;-86
2022/11/30 04:16:34;;;;;;;48.43;22.60;;;4.70;99.90;;;;;;4999328;28;20170;-85
2022/11/30 04:18:59;;;;;;;51.20;24.60;;;4.70;99.90;;;;;;5003033;28;20508;-86
2022/11/30 04:21:25;;;;;;;48.00;24.80;;;4.70;99.90;;;;;;5001879;28;20173;-85
2022/11/30 04:23:53;;;;;;;51.77;24.57;;;4.70;99.90;;;;;;5003697;28;20175;-84
2022/11/30 04:26:19;;;;;;;44.67;23.20;;;4.70;99.90;;;;;;5004717;28;20156;-84
2022/11/30 04:28:45;;;;;;;44.70;23.40;;;4.80;99.90;;;;;;4986123;28;20426;-85
2022/11/30 04:31:11;;;;;;;46.53;24.33;;;4.80;99.90;;;;;;4982274;28;20471;-84
2022/11/30 04:33:36;;;;;;;56.63;24.47;;;4.80;99.90;;;;;;5003900;28;20255;-85
2022/11/30 04:36:05;;;;;;;57.40;25.67;;;4.80;99.90;;;;;;5007356;28;20517;-88
2022/11/30 04:38:31;;;;;;;52.53;23.27;;;4.80;99.90;;;;;;5037333;28;20231;-87
2022/11/30 04:40:57;;;;;;;45.07;20.70;;;4.80;99.90;;;;;;5038004;28;20426;-86
2022/11/30 04:43:23;;;;;;;50.17;24.20;;;4.80;99.90;;;;;;5018886;28;20407;-86
2022/11/30 04:45:49;;;;;;;48.57;23.37;;;4.80;99.90;;;;;;5031216;28;20179;-86
2022/11/30 04:48:16;;;;;;;48.53;24.03;;;4.80;99.90;;;;;;4999937;28;20179;-93
2022/11/30 04:50:47;;;;;;;41.00;20.50;;;4.80;99.90;;;;;;5000211;28;20479;-85
2022/11/30 04:53:16;;;;;;;40.03;21.27;;;4.80;99.90;;;;;;5017481;28;20414;-85
2022/11/30 04:55:41;;;;;;;35.60;19.97;;;4.80;99.90;;;;;;5017162;28;20428;-85
2022/11/30 04:58:07;;;;;;;43.07;21.93;;;4.80;99.90;;;;;;5017806;28;20532;-95
2022/11/30 05:00:33;;;;;;;52.93;22.67;;;4.80;99.90;;;;;;5019473;28;20176;-95
2022/11/30 05:02:59;;;;;;;46.67;23.87;;;4.70;99.90;;;;;;5002035;28;20175;-94
2022/11/30 05:05:24;;;;;;;39.90;21.40;;;4.80;99.90;;;;;;5019750;28;20497;-94
2022/11/30 05:08:02;;;;;;;48.43;21.60;;;4.70;99.90;;;;;;5002299;28;20203;-96
2022/11/30 05:10:29;;;;;;;50.43;22.07;;;4.80;99.90;;;;;;5018566;28;20274;-95
2022/11/30 05:12:55;;;;;;;59.03;23.00;;;4.70;99.90;;;;;;5018542;28;20436;-95
2022/11/30 05:15:20;;;;;;;55.03;23.10;;;4.80;99.90;;;;;;5018370;28;20420;-96
2022/11/30 05:17:46;;;;;;;50.20;22.03;;;4.80;99.90;;;;;;5018542;28;20469;-95
2022/11/30 05:20:11;;;;;;;41.33;21.97;;;4.80;99.90;;;;;;5001684;28;20178;-95
2022/11/30 05:22:37;;;;;;;42.73;22.93;;;4.80;99.90;;;;;;5017779;28;20200;-95
2022/11/30 05:25:03;;;;;;;38.80;19.10;;;4.80;99.90;;;;;;5000323;28;20254;-96
2022/11/30 05:27:28;;;;;;;42.87;19.70;;;4.80;99.90;;;;;;5000397;28;20231;-95
2022/11/30 05:29:54;;;;;;;44.80;21.17;;;4.70;99.90;;;;;;5000465;28;20413;-93
2022/11/30 05:32:19;;;;;;;40.53;20.57;;;4.80;99.90;;;;;;5018025;28;20206;-92
2022/11/30 05:34:45;;;;;;;41.10;21.60;;;4.70;99.90;;;;;;5001721;28;20181;-95
2022/11/30 05:37:10;;;;;;;40.47;20.93;;;4.80;99.90;;;;;;5002899;28;20217;-93
2022/11/30 05:39:36;;;;;;;38.97;19.93;;;4.80;99.90;;;;;;5003831;28;20711;-95
2022/11/30 05:42:01;;;;;;;39.07;20.87;;;4.80;99.90;;;;;;5020927;28;20181;-92
2022/11/30 05:44:27;;;;;;;44.73;20.50;;;4.80;99.90;;;;;;5002631;28;20190;-94
2022/11/30 05:46:52;;;;;;;42.40;18.97;;;4.80;99.90;;;;;;5003273;28;20299;-95
2022/11/30 05:49:21;;;;;;;40.27;21.87;;;4.80;99.90;;;;;;5004634;28;20178;-95
2022/11/30 05:51:53;;;;;;;38.57;20.27;;;4.80;99.90;;;;;;5006841;28;20195;-87
2022/11/30 05:54:18;;;;;;;36.10;21.20;;;4.80;99.90;;;;;;5031725;28;20420;-95
2022/11/30 05:56:44;;;;;;;42.23;21.97;;;4.80;99.90;;;;;;5020730;28;20920;-95
2022/11/30 05:59:10;;;;;;;43.50;20.23;;;4.80;99.90;;;;;;5003036;28;20638;-94
2022/11/30 06:01:39;;;;;;;47.53;21.47;;;4.80;99.90;;;;;;5021286;28;20174;-95
2022/11/30 06:04:05;;;;;;;42.00;20.80;;;4.90;99.90;;;;;;5017150;28;20482;-94
2022/11/30 06:06:31;;;;;;;35.07;18.60;;;4.90;99.90;;;;;;5017397;28;20508;-96
2022/11/30 06:08:56;;;;;;;38.43;21.27;;;4.80;99.90;;;;;;4999551;28;20431;-94
2022/11/30 06:11:31;;;;;;;38.23;21.50;;;4.80;99.90;;;;;;5003968;28;20472;-96
2022/11/30 06:13:56;;;;;;;31.27;19.37;;;4.80;99.90;;;;;;5006512;28;20166;-95
2022/11/30 06:16:22;;;;;;;43.73;20.07;;;4.80;99.90;;;;;;5025510;28;20442;-95
2022/11/30 06:18:47;;;;;;;43.30;19.50;;;4.80;99.90;;;;;;5028389;28;20190;-93
2022/11/30 06:21:13;;;;;;;44.10;18.87;;;4.80;99.90;;;;;;5013020;28;20168;-92
2022/11/30 06:23:38;;;;;;;43.63;19.10;;;4.80;99.90;;;;;;5005402;28;20179;-89
2022/11/30 06:26:10;;;;;;;43.67;22.27;;;4.80;99.90;;;;;;5015012;28;20195;-95
2022/11/30 06:28:36;;;;;;;37.10;21.43;;;4.80;99.90;;;;;;5002677;28;20189;-94
2022/11/30 06:31:03;;;;;;;35.93;19.10;;;4.80;99.90;;;;;;5031306;28;20550;-87
2022/11/30 06:33:29;;;;;;;41.07;21.60;;;4.80;99.90;;;;;;5035236;28;20421;-95
2022/11/30 06:35:55;;;;;;;49.23;21.97;;;4.80;99.90;;;;;;5038338;28;20435;-92
2022/11/30 06:38:21;;;;;;;38.87;20.03;;;4.80;99.90;;;;;;5036075;23;20476;-96
2022/11/30 06:40:47;;;;;;;44.03;20.97;;;4.80;99.90;;;;;;5003631;28;20263;-88
2022/11/30 06:43:15;;;;;;;34.03;18.10;;;4.80;99.90;;;;;;5020853;28;20393;-87
2022/11/30 06:45:47;;;;;;;38.40;20.27;;;4.90;99.90;;;;;;5003481;28;20174;-95
2022/11/30 06:48:13;;;;;;;31.50;16.40;;;4.80;99.90;;;;;;5021363;23;20500;-96
2022/11/30 06:50:39;;;;;;;33.03;16.97;;;4.80;99.90;;;;;;5015425;28;20549;-95
2022/11/30 06:53:05;;;;;;;37.10;19.90;;;4.80;99.90;;;;;;4997972;28;20433;-96
2022/11/30 06:55:34;;;;;;;30.10;16.47;;;4.70;99.90;;;;;;5003126;23;20494;-92
2022/11/30 06:58:07;;;;;;;39.83;18.70;;;4.80;99.90;;;;;;5012477;23;20249;-91
2022/11/30 07:00:32;;;;;;;27.33;16.63;;;4.80;99.90;;;;;;5016557;28;20427;-90
2022/11/30 07:02:58;;;;;;;31.57;17.30;;;4.80;99.90;;;;;;5017771;28;20433;-88
2022/11/30 07:05:23;;;;;;;32.03;16.63;;;4.80;99.90;;;;;;5000004;28;20167;-95
2022/11/30 07:07:49;;;;;;;33.13;16.77;;;4.80;99.90;;;;;;5014987;28;20187;-89
2022/11/30 07:10:15;;;;;;;26.03;15.10;;;4.80;99.90;;;;;;4999895;28;20696;-88
2022/11/30 07:12:44;;;;;;;31.13;16.00;;;4.80;99.90;;;;;;5008464;28;20449;-86
2022/11/30 07:15:10;;;;;;;35.37;16.77;;;4.80;99.90;;;;;;5067548;23;20303;-86
2022/11/30 07:17:35;;;;;;;28.33;14.90;;;4.70;99.90;;;;;;5014631;23;20476;-86
2022/11/30 07:20:01;;;;;;;28.00;15.87;;;4.80;99.90;;;;;;5008218;28;20495;-87
2022/11/30 07:22:27;;;;;;;30.80;17.60;;;4.80;99.90;;;;;;4992134;28;20170;-86
2022/11/30 07:27:36;;;;;;;31.33;14.20;;;4.80;99.90;;;;;;5010059;28;20411;-89
2022/11/30 07:30:03;;;;;;;22.17;13.87;;;4.70;99.90;;;;;;5011763;28;20488;-87
2022/11/30 07:32:28;;;;;;;27.33;14.97;;;4.70;99.90;;;;;;5008997;28;20179;-85
2022/11/30 07:34:54;;;;;;;28.40;15.70;;;4.80;99.90;;;;;;4996650;23;20495;-89
2022/11/30 07:39:47;;;;;;;26.40;14.73;;;4.80;99.90;;;;;;5025531;28;20217;-86
2022/11/30 07:42:12;;;;;;;29.30;15.10;;;4.80;99.90;;;;;;5031776;28;20434;-86
2022/11/30 07:44:38;;;;;;;26.67;14.10;;;4.70;99.90;;;;;;5027760;28;20176;-86
2022/11/30 07:47:06;;;;;;;30.60;14.63;;;4.70;99.90;;;;;;5008873;28;20175;-86
2022/11/30 07:52:07;;;;;;;25.17;15.07;;;4.70;99.90;;;;;;5020315;23;20498;-90
2022/11/30 07:54:33;;;;;;;25.60;15.53;;;4.80;99.90;;;;;;5010638;28;20464;-89
2022/11/30 07:56:59;;;;;;;25.00;13.47;;;4.80;99.90;;;;;;5092822;23;20284;-86
2022/11/30 07:59:24;;;;;;;22.37;13.57;;;4.80;99.90;;;;;;5008193;28;20176;-86
2022/11/30 08:01:50;;;;;;;24.20;13.83;;;4.80;99.90;;;;;;5008869;28;20188;-86
2022/11/30 08:04:15;;;;;;;21.60;13.27;;;4.80;99.90;;;;;;5273935;23;20217;-86
2022/11/30 08:06:41;;;;;;;28.43;14.93;;;4.90;99.90;;;;;;4988201;28;20726;-85
2022/11/30 08:09:06;;;;;;;26.40;14.23;;;4.80;99.90;;;;;;5053952;23;20226;-87
2022/11/30 08:11:33;;;;;;;23.90;13.57;;;4.80;99.90;;;;;;5002237;28;20212;-86
2022/11/30 08:14:00;;;;;;;21.23;12.37;;;4.90;99.90;;;;;;4991689;28;20199;-86
2022/11/30 08:16:28;;;;;;;24.13;12.47;;;4.90;99.90;;;;;;4993666;28;20432;-86
2022/11/30 08:18:58;;;;;;;20.70;12.03;;;4.80;99.90;;;;;;4995649;28;20427;-88
2022/11/30 08:21:23;;;;;;;20.73;12.00;;;4.90;99.90;;;;;;5008112;28;20437;-86
2022/11/30 08:23:51;;;;;;;20.53;11.03;;;4.90;99.90;;;;;;5001667;28;20430;-87
2022/11/30 08:28:53;;;;;;;20.67;12.63;;;4.90;99.90;;;;;;5230427;23;20490;-89
2022/11/30 08:31:25;;;;;;;25.33;13.03;;;4.90;99.90;;;;;;4991783;28;20819;-89
2022/11/30 08:34:01;;;;;;;21.47;13.27;;;5.00;99.90;;;;;;5001518;28;20424;-87
2022/11/30 08:36:29;;;;;;;19.67;10.83;;;5.00;99.90;;;;;;5114872;23;20479;-87
2022/11/30 08:39:10;;;;;;;20.60;12.40;;;5.00;99.90;;;;;;5020940;23;20896;-90
2022/11/30 08:41:37;;;;;;;20.83;11.87;;;5.00;99.90;;;;;;5024304;23;20417;-88
2022/11/30 08:44:04;;;;;;;24.87;13.73;;;5.00;99.90;;;;;;5035024;23;20468;-88
2022/11/30 08:46:30;;;;;;;23.77;12.40;;;5.00;99.90;;;;;;4996776;28;20441;-92
2022/11/30 08:48:56;;;;;;;25.77;12.77;;;5.00;99.90;;;;;;4995146;28;20399;-87
2022/11/30 08:51:21;;;;;;;22.63;10.97;;;5.00;99.90;;;;;;5004591;23;20488;-86
2022/11/30 08:53:54;;;;;;;21.10;12.37;;;5.00;99.90;;;;;;5030458;23;20209;-86
2022/11/30 08:56:22;;;;;;;23.37;12.60;;;5.00;99.90;;;;;;5002851;23;20234;-91
2022/11/30 08:58:48;;;;;;;22.47;11.77;;;5.00;99.90;;;;;;5004864;23;20493;-86
2022/11/30 09:01:19;;;;;;;22.43;11.50;;;5.00;99.90;;;;;;5040089;23;20477;-88
2022/11/30 09:03:47;;;;;;;18.27;11.60;;;4.90;99.90;;;;;;4997855;28;20473;-88
2022/11/30 09:08:46;;;;;;;24.27;12.10;;;4.90;99.90;;;;;;5030937;23;22574;-89
2022/11/30 09:13:48;;;;;;;24.77;11.47;;;5.00;99.90;;;;;;5030471;23;20495;-88
2022/11/30 09:21:24;;;;;;;19.00;11.67;;;4.90;99.90;;;;;;4982717;23;20479;-88
2022/11/30 09:23:51;;;;;;;24.07;13.50;;;4.90;99.90;;;;;;4992182;28;20438;-89
2022/11/30 09:26:25;;;;;;;23.40;13.20;;;4.90;99.90;;;;;;5015158;28;20443;-88
2022/11/30 09:28:54;;;;;;;27.70;13.90;;;4.90;99.90;;;;;;4995999;28;20974;-88
2022/11/30 09:31:39;;;;;;;18.40;12.00;;;5.00;99.90;;;;;;4997551;28;20594;-89
2022/11/30 09:34:10;;;;;;;18.97;11.30;;;5.00;99.90;;;;;;5003566;28;20433;-90
2022/11/30 09:37:25;;;;;;;24.70;14.70;;;5.00;99.90;;;;;;5011134;28;20422;-88
2022/11/30 09:39:51;;;;;;;28.40;15.33;;;5.00;99.90;;;;;;5034131;23;20516;-87
2022/11/30 09:42:31;;;;;;;27.47;13.23;;;5.00;99.90;;;;;;5017611;28;20417;-88
2022/11/30 09:45:12;;;;;;;27.07;14.67;;;5.00;99.90;;;;;;5004919;28;20177;-87
2022/11/30 09:47:59;;;;;;;29.20;15.90;;;5.00;99.90;;;;;;4995389;28;20420;-86
2022/11/30 09:50:28;;;;;;;28.30;16.13;;;5.00;99.90;;;;;;5013292;28;20439;-87
2022/11/30 09:52:59;;;;;;;29.83;15.83;;;5.00;99.90;;;;;;5010020;23;20484;-86
2022/11/30 09:55:32;;;;;;;32.73;14.73;;;5.00;99.90;;;;;;4996446;28;20445;-91
2022/11/30 09:58:01;;;;;;;22.90;14.30;;;5.00;99.90;;;;;;4991333;28;20432;-86
2022/11/30 10:03:05;;;;;;;26.27;13.37;;;5.00;99.90;;;;;;5002049;26;20461;-85
2022/11/30 10:06:09;;;;;;;24.20;15.30;;;5.00;99.90;;;;;;5003681;28;20421;-86
2022/11/30 10:08:55;;;;;;;27.33;16.40;;;5.00;99.90;;;;;;5021733;28;20415;-86
2022/11/30 10:11:52;;;;;;;26.00;15.80;;;5.10;99.90;;;;;;5021308;28;20489;-86
2022/11/30 10:17:19;;;;;;;27.37;16.00;;;5.00;99.90;;;;;;5024513;28;20485;-86
2022/11/30 10:20:11;;;;;;;31.30;15.27;;;5.00;99.90;;;;;;5018475;28;20433;-89
2022/11/30 10:23:09;;;;;;;31.60;17.57;;;5.00;99.90;;;;;;5037662;28;20415;-88
2022/11/30 10:25:56;;;;;;;31.23;15.07;;;5.00;99.90;;;;;;5047596;23;20558;-87
2022/11/30 10:28:51;;;;;;;28.80;15.03;;;5.00;99.90;;;;;;5019391;28;20419;-86
2022/11/30 10:31:37;;;;;;;32.33;16.93;;;5.00;99.90;;;;;;5000398;28;20476;-88
2022/11/30 10:34:22;;;;;;;31.70;17.87;;;5.10;99.90;;;;;;5019828;28;20405;-89
2022/11/30 10:37:01;;;;;;;28.10;17.07;;;5.00;99.90;;;;;;5018476;28;20427;-86
2022/11/30 10:39:32;;;;;;;26.63;15.80;;;5.10;99.90;;;;;;5018751;28;20413;-87
2022/11/30 10:42:11;;;;;;;29.30;14.80;;;5.10;99.90;;;;;;5054197;23;20511;-86
2022/11/30 10:44:44;;;;;;;27.33;14.53;;;5.20;99.90;;;;;;5001097;28;20415;-86
2022/11/30 10:49:38;;;;;;;29.13;15.83;;;5.10;99.90;;;;;;5021126;23;20504;-90
2022/11/30 10:52:07;;;;;;;28.33;15.77;;;5.00;99.90;;;;;;5001679;28;20260;-86
2022/11/30 10:54:35;;;;;;;27.97;15.20;;;5.00;99.90;;;;;;5000472;28;20455;-87
2022/11/30 10:57:03;;;;;;;32.83;16.00;;;5.00;99.90;;;;;;5017819;28;20547;-86
2022/11/30 10:59:46;;;;;;;30.33;16.17;;;5.00;99.90;;;;;;5001991;28;20488;-89
2022/11/30 11:02:50;;;;;;;24.63;15.57;;;5.00;99.90;;;;;;5018130;28;20534;-89
2022/11/30 11:05:29;;;;;;;26.10;13.50;;;5.10;99.90;;;;;;5007363;28;20440;-85
2022/11/30 11:08:02;;;;;;;27.97;14.40;;;5.10;99.90;;;;;;5018588;23;21009;-85
2022/11/30 11:10:35;;;;;;;26.70;15.10;;;5.10;99.90;;;;;;5007250;28;20511;-86
2022/11/30 11:13:02;;;;;;;28.67;15.33;;;5.10;99.90;;;;;;4990620;28;20916;-86
2022/11/30 11:15:29;;;;;;;24.20;13.30;;;5.10;99.90;;;;;;5108311;23;20480;-87
2022/11/30 11:20:42;;;;;;;26.67;13.30;;;5.10;99.90;;;;;;4976440;28;20487;-86
2022/11/30 11:23:28;;;;;;;27.97;13.97;;;5.00;99.90;;;;;;4971248;28;20441;-85
2022/11/30 11:25:54;;;;;;;29.17;16.13;;;5.00;99.90;;;;;;5251880;23;20233;-85
2022/11/30 11:28:23;;;;;;;32.10;17.20;;;5.00;99.90;;;;;;4999428;28;20421;-85
2022/11/30 11:30:51;;;;;;;35.70;16.40;;;5.00;99.90;;;;;;5053186;23;20465;-88
2022/11/30 11:38:37;;;;;;;35.70;16.03;;;5.00;99.90;;;;;;4854901;23;21390;-88
2022/11/30 11:41:20;;;;;;;31.70;16.10;;;5.10;99.90;;;;;;5122453;23;20475;-90
2022/11/30 11:44:05;;;;;;;29.70;17.80;;;5.00;99.90;;;;;;5090838;23;20502;-87
2022/11/30 11:51:34;;;;;;;36.50;17.40;;;4.90;99.90;;;;;;5163041;23;20513;-89
2022/11/30 11:54:14;;;;;;;44.87;17.60;;;5.00;99.90;;;;;;5198491;23;20237;-87
2022/11/30 11:56:40;;;;;;;32.63;18.20;;;4.90;99.90;;;;;;5203738;23;20468;-86
2022/11/30 12:01:46;;;;;;;36.23;17.67;;;5.00;99.90;;;;;;5018286;23;20509;-87
2022/11/30 12:04:23;;;;;;;41.23;20.10;;;5.00;99.90;;;;;;4975574;28;20187;-89
2022/11/30 12:06:52;;;;;;;38.00;18.70;;;5.00;99.90;;;;;;4974130;28;20436;-87
2022/11/30 12:09:26;;;;;;;37.80;20.57;;;5.00;99.90;;;;;;4957713;28;20457;-90
2022/11/30 12:11:54;;;;;;;44.03;22.03;;;4.90;99.90;;;;;;4974332;28;20485;-90
2022/11/30 12:14:24;;;;;;;46.37;22.10;;;5.00;99.90;;;;;;4975682;28;20422;-90
2022/11/30 12:17:17;;;;;;;41.77;21.37;;;5.10;99.90;;;;;;4975617;28;20907;-90
2022/11/30 12:19:58;;;;;;;49.27;23.57;;;5.00;99.90;;;;;;4975760;28;20406;-90
2022/11/30 12:23:00;;;;;;;43.97;24.40;;;5.00;99.90;;;;;;4975685;28;20417;-90
2022/11/30 12:25:29;;;;;;;48.90;22.10;;;5.10;99.90;;;;;;4974764;28;20751;-90
2022/11/30 12:28:15;;;;;;;48.03;22.27;;;5.00;99.90;;;;;;4975766;28;20543;-89
2022/11/30 12:31:16;;;;;;;39.83;19.50;;;5.10;99.90;;;;;;4974982;28;20469;-89
2022/11/30 12:34:19;;;;;;;46.00;22.97;;;5.10;99.90;;;;;;4976105;28;20461;-90
2022/11/30 12:36:51;;;;;;;51.27;24.67;;;5.10;99.90;;;;;;4974213;28;20424;-90
2022/11/30 12:39:32;;;;;;;42.00;22.13;;;5.00;99.90;;;;;;4974867;28;20401;-86
2022/11/30 12:42:05;;;;;;;49.73;23.27;;;5.00;99.90;;;;;;4974808;28;20420;-88
2022/11/30 12:44:40;;;;;;;40.97;21.70;;;5.00;99.90;;;;;;4957547;28;20418;-85
2022/11/30 12:47:25;;;;;;;46.23;25.03;;;5.10;99.90;;;;;;4974774;28;20419;-88
2022/11/30 12:50:16;;;;;;;43.47;22.17;;;5.10;99.90;;;;;;4973642;28;20492;-87
2022/11/30 12:53:06;;;;;;;46.83;22.13;;;5.10;99.90;;;;;;4973803;28;20930;-88
2022/11/30 12:55:55;;;;;;;43.57;22.73;;;5.10;99.90;;;;;;4978409;28;20931;-85
2022/11/30 12:59:01;;;;;;;49.37;23.23;;;5.10;99.90;;;;;;4978322;28;20923;-86
2022/11/30 13:01:55;;;;;;;45.97;22.43;;;5.10;99.90;;;;;;4978424;28;21007;-86
2022/11/30 13:04:26;;;;;;;45.37;22.90;;;5.00;99.90;;;;;;4977501;28;20829;-85
2022/11/30 13:07:27;;;;;;;50.30;21.47;;;5.10;99.90;;;;;;4977309;28;20920;-85
2022/11/30 13:09:57;;;;;;;56.87;24.17;;;5.00;99.90;;;;;;4955194;28;20945;-86
2022/11/30 13:12:37;;;;;;;61.47;24.53;;;5.00;99.90;;;;;;4977673;28;20992;-85
2022/11/30 13:15:10;;;;;;;53.40;23.10;;;5.00;99.90;;;;;;4959325;28;20992;-84
2022/11/30 13:17:37;;;;;;;48.30;24.23;;;5.00;99.90;;;;;;4974040;28;20969;-90
2022/11/30 13:20:29;;;;;;;46.17;22.40;;;5.00;99.90;;;;;;4960107;28;20470;-88
2022/11/30 13:23:01;;;;;;;45.77;22.87;;;5.00;99.90;;;;;;4960090;28;20512;-92
2022/11/30 13:25:39;;;;;;;48.50;24.27;;;4.90;99.90;;;;;;4961042;28;20515;-89
2022/11/30 13:28:24;;;;;;;50.83;23.20;;;4.90;99.90;;;;;;4961333;28;20436;-89
2022/11/30 13:31:18;;;;;;;57.50;24.83;;;4.90;99.90;;;;;;4976632;28;20464;-87
2022/11/30 13:33:56;;;;;;;53.67;23.07;;;4.90;99.90;;;;;;4960319;28;20431;-89
2022/11/30 13:42:07;;;;;;;49.77;23.10;;;4.90;99.90;;;;;;5063325;23;20498;-90
2022/11/30 13:44:39;;;;;;;47.93;23.53;;;4.90;99.90;;;;;;4980813;28;20502;-90